Time;durP1;ratioP1;P1;durP2;ratioP2;P2;SDS_P1;SDS_P2;PMS_P1;PMS_P2;Temp;Humidity;BMP_temperature;BMP_pressure;BME280_temperature;BME280_humidity;BME280_pressure;Samples;Min_cycle;Max_cycle;Signal;HPM_P1;HPM_P2
2022/10/16 00:01:30;;;;;;;11.70;5.83;;;;;;;6.01;84.48;96284.98;1758832;81;21017;-69
2022/10/16 00:04:01;;;;;;;9.23;6.47;;;;;;;6.00;84.32;96286.73;1757432;81;21057;-70
2022/10/16 00:06:30;;;;;;;10.10;5.50;;;;;;;6.02;84.56;96284.11;1759418;81;20982;-69
2022/10/16 00:08:57;;;;;;;13.17;6.47;;;;;;;5.93;84.61;96280.08;1756869;81;21523;-70
2022/10/16 00:11:28;;;;;;;12.53;6.23;;;;;;;5.84;85.15;96281.70;1756519;81;21042;-70
2022/10/16 00:13:59;;;;;;;12.30;5.67;;;;;;;5.89;85.34;96277.84;1758539;81;20994;-69
2022/10/16 00:16:27;;;;;;;14.67;5.70;;;;;;;5.88;84.89;96269.55;1757368;81;21038;-70
2022/10/16 00:18:54;;;;;;;9.17;5.60;;;;;;;5.82;84.88;96277.31;1758740;81;21061;-70
2022/10/16 00:21:25;;;;;;;11.10;5.17;;;;;;;5.76;85.23;96278.58;1759981;81;20979;-70
2022/10/16 00:24:02;;;;;;;8.40;6.20;;;;;;;5.69;84.72;96279.36;1756012;81;21006;-69
2022/10/16 00:26:31;;;;;;;11.23;6.77;;;;;;;5.64;84.90;96280.20;1758572;81;21468;-70
2022/10/16 00:28:58;;;;;;;9.37;5.73;;;;;;;5.59;84.56;96283.61;1757220;81;21022;-68
2022/10/16 00:31:26;;;;;;;7.93;4.63;;;;;;;5.49;84.49;96286.98;1756561;81;21061;-69
2022/10/16 00:33:52;;;;;;;11.43;5.87;;;;;;;5.41;85.39;96290.38;1758477;81;20987;-69
2022/10/16 00:36:23;;;;;;;10.33;5.10;;;;;;;5.38;85.61;96289.03;1758442;81;21504;-69
2022/10/16 00:38:57;;;;;;;10.30;4.97;;;;;;;5.38;85.43;96290.78;1758749;81;21109;-69
2022/10/16 00:41:26;;;;;;;10.20;4.87;;;;;;;5.31;86.16;96294.17;1754031;81;21005;-68
2022/10/16 00:43:57;;;;;;;8.20;4.63;;;;;;;5.30;85.58;96291.12;1757219;81;21029;-68
2022/10/16 00:46:40;;;;;;;11.57;5.80;;;;;;;5.31;85.77;96295.48;1757361;81;21026;-69
2022/10/16 00:49:18;;;;;;;9.50;5.28;;;;;;;5.35;85.89;96300.78;1755782;81;21081;-69
2022/10/16 00:51:51;;;;;;;10.67;5.13;;;;;;;5.36;85.59;96300.34;1757099;81;21782;-69
2022/10/16 00:54:28;;;;;;;9.73;5.30;;;;;;;5.36;86.11;96297.29;1757349;81;21014;-69
2022/10/16 00:56:58;;;;;;;7.63;5.10;;;;;;;5.31;85.36;96295.48;1759672;81;21015;-70
2022/10/16 00:59:39;;;;;;;11.67;4.87;;;;;;;5.27;85.08;96299.81;1758595;81;21045;-69
2022/10/16 01:02:10;;;;;;;15.20;5.30;;;;;;;5.23;85.04;96301.92;1758355;81;21026;-69
2022/10/16 01:04:42;;;;;;;8.73;4.60;;;;;;;5.26;85.57;96299.34;1759971;81;21548;-70
2022/10/16 01:07:41;;;;;;;6.10;4.30;;;;;;;5.34;86.09;96294.20;1756021;81;21037;-69
2022/10/16 01:10:28;;;;;;;11.60;4.57;;;;;;;5.39;85.87;96289.91;1758087;81;20983;-70
2022/10/16 01:13:09;;;;;;;9.20;4.23;;;;;;;5.43;85.80;96303.49;1759115;81;21133;-69
2022/10/16 01:15:44;;;;;;;9.37;4.80;;;;;;;5.47;86.05;96299.16;1757539;81;21030;-69
2022/10/16 01:18:28;;;;;;;5.90;4.70;;;;;;;5.52;85.70;96302.71;1760053;81;21077;-70
2022/10/16 01:21:05;;;;;;;10.03;4.80;;;;;;;5.47;85.02;96305.30;1754555;81;21018;-69
2022/10/16 01:24:19;;;;;;;9.43;4.37;;;;;;;5.46;85.39;96304.83;1754837;81;20978;-69
2022/10/16 01:27:13;;;;;;;5.75;3.58;;;;;;;5.38;85.27;96302.13;1759055;81;21053;-70
2022/10/16 01:30:07;;;;;;;6.37;4.30;;;;;;;5.29;84.77;96308.56;1759694;81;21456;-70
2022/10/16 01:32:54;;;;;;;10.68;4.58;;;;;;;5.25;84.37;96303.27;1758944;81;21105;-70
2022/10/16 01:35:30;;;;;;;8.87;4.50;;;;;;;5.18;84.63;96303.59;1754710;81;21026;-69
2022/10/16 01:38:39;;;;;;;9.83;4.57;;;;;;;5.28;85.77;96301.98;1755693;81;21609;-70
2022/10/16 01:41:27;;;;;;;7.90;5.00;;;;;;;5.42;85.79;96306.55;1757256;81;21144;-70
2022/10/16 01:44:02;;;;;;;9.17;4.23;;;;;;;5.44;85.30;96307.85;1758826;81;21018;-69
2022/10/16 01:46:31;;;;;;;8.33;4.60;;;;;;;5.39;85.16;96308.22;1756201;81;21030;-69
2022/10/16 01:49:00;;;;;;;5.77;4.43;;;;;;;5.30;84.79;96312.92;1754617;81;21564;-69
2022/10/16 01:51:29;;;;;;;5.67;4.60;;;;;;;5.37;85.39;96306.05;1754479;81;21480;-68
2022/10/16 01:54:00;;;;;;;7.03;4.50;;;;;;;5.35;84.16;96311.69;1760125;81;21018;-69
2022/10/16 01:56:29;;;;;;;8.60;5.10;;;;;;;5.20;83.52;96312.35;1758811;81;21048;-69
2022/10/16 01:59:06;;;;;;;8.67;5.40;;;;;;;5.08;83.74;96313.05;1758906;81;21488;-69
2022/10/16 02:01:37;;;;;;;7.73;4.93;;;;;;;5.05;84.56;96313.45;1758076;81;21022;-70
2022/10/16 02:04:12;;;;;;;11.87;5.70;;;;;;;5.13;85.22;96317.05;1758903;81;21066;-69
2022/10/16 02:06:39;;;;;;;8.90;5.37;;;;;;;5.13;85.12;96317.91;1756581;81;21626;-69
2022/10/16 02:09:06;;;;;;;7.73;5.00;;;;;;;5.11;84.75;96323.55;1757388;81;21101;-70
2022/10/16 02:11:33;;;;;;;7.07;4.23;;;;;;;5.08;85.16;96323.95;1758659;81;21073;-69
2022/10/16 02:14:04;;;;;;;8.50;4.20;;;;;;;4.98;85.15;96330.34;1758985;81;21472;-70
2022/10/16 02:16:43;;;;;;;7.85;4.00;;;;;;;4.87;84.63;96331.06;1760010;81;21037;-70
2022/10/16 02:19:14;;;;;;;5.43;3.97;;;;;;;4.72;84.12;96333.88;1758722;81;20999;-68
2022/10/16 02:21:52;;;;;;;12.20;4.67;;;;;;;4.64;84.61;96343.77;1755688;81;21089;-69
2022/10/16 02:24:28;;;;;;;6.40;4.07;;;;;;;4.66;85.03;96345.95;1757419;81;21061;-69
2022/10/16 02:27:07;;;;;;;7.33;4.50;;;;;;;4.60;85.75;96344.13;1745399;81;21058;-69
2022/10/16 02:29:39;;;;;;;18.60;7.13;;;;;;;4.54;85.18;96341.42;1758557;81;21057;-68
2022/10/16 02:32:08;;;;;;;8.47;5.40;;;;;;;4.43;85.60;96346.45;1756431;81;21468;-69
2022/10/16 02:34:36;;;;;;;10.00;5.43;;;;;;;4.47;85.72;96354.80;1758050;81;21026;-68
2022/10/16 02:37:05;;;;;;;7.27;4.87;;;;;;;4.53;86.09;96352.72;1756969;81;21041;-68
2022/10/16 02:39:33;;;;;;;10.67;4.70;;;;;;;4.57;86.21;96347.12;1758781;81;21065;-67
2022/10/16 02:41:59;;;;;;;6.70;5.07;;;;;;;4.64;86.25;96347.69;1760144;81;21065;-69
2022/10/16 02:44:26;;;;;;;11.53;6.10;;;;;;;4.66;86.60;96349.87;1759699;81;22288;-68
2022/10/16 02:46:53;;;;;;;10.23;6.03;;;;;;;4.70;86.40;96355.19;1757195;81;21164;-68
2022/10/16 02:49:20;;;;;;;8.13;5.63;;;;;;;4.73;85.86;96354.36;1758765;81;21018;-69
2022/10/16 02:51:47;;;;;;;8.03;5.73;;;;;;;4.74;85.64;96360.92;1756146;81;21041;-69
2022/10/16 02:54:14;;;;;;;6.53;4.83;;;;;;;4.72;85.30;96363.94;1756904;81;21050;-69
2022/10/16 02:56:40;;;;;;;9.83;4.87;;;;;;;4.76;85.86;96363.14;1757967;81;21061;-69
2022/10/16 02:59:06;;;;;;;6.23;4.23;;;;;;;4.78;85.19;96365.33;1758797;81;21441;-69
2022/10/16 03:01:33;;;;;;;7.63;5.03;;;;;;;4.74;84.93;96361.36;1758093;81;21018;-69
2022/10/16 03:04:00;;;;;;;11.23;4.77;;;;;;;4.72;85.38;96363.94;1755566;81;21567;-69
2022/10/16 03:06:26;;;;;;;10.07;4.23;;;;;;;4.72;85.86;96366.55;1755817;81;21564;-69
2022/10/16 03:08:52;;;;;;;10.83;4.47;;;;;;;4.70;85.82;96366.95;1758344;81;21021;-69
2022/10/16 03:11:19;;;;;;;12.80;4.53;;;;;;;4.75;85.81;96370.95;1759961;81;21046;-69
2022/10/16 03:13:45;;;;;;;6.83;4.17;;;;;;;4.68;84.83;96368.66;1760192;81;21504;-69
2022/10/16 03:16:13;;;;;;;5.90;4.30;;;;;;;4.66;84.84;96371.70;1758437;81;21045;-68
2022/10/16 03:18:39;;;;;;;8.17;5.37;;;;;;;4.66;85.27;96380.84;1755788;81;21042;-68
2022/10/16 03:21:06;;;;;;;7.73;5.17;;;;;;;4.66;85.20;96376.02;1756374;81;21064;-68
2022/10/16 03:23:33;;;;;;;8.90;5.57;;;;;;;4.63;85.44;96378.59;1758458;81;21551;-69
2022/10/16 03:26:00;;;;;;;9.67;5.53;;;;;;;4.69;85.66;96386.12;1759755;81;21033;-68
2022/10/16 03:28:27;;;;;;;13.10;5.83;;;;;;;4.73;85.65;96379.19;1757160;81;21068;-69
2022/10/16 03:30:53;;;;;;;8.63;4.53;;;;;;;4.75;85.33;96385.33;1756451;81;21007;-69
2022/10/16 03:33:20;;;;;;;11.37;5.17;;;;;;;4.71;84.95;96384.81;1757472;81;21045;-68
2022/10/16 03:35:53;;;;;;;10.40;5.30;;;;;;;4.69;85.48;96386.12;1758302;81;21512;-68
2022/10/16 03:38:21;;;;;;;10.18;5.22;;;;;;;4.68;85.37;96385.64;1756374;81;21085;-68
2022/10/16 03:40:48;;;;;;;6.90;5.27;;;;;;;4.57;84.20;96389.82;1757239;81;21041;-69
2022/10/16 03:43:14;;;;;;;6.60;4.73;;;;;;;4.44;84.39;96398.31;1757885;81;21006;-69
2022/10/16 03:45:41;;;;;;;5.23;4.10;;;;;;;4.36;85.07;96402.09;1755811;81;21022;-69
2022/10/16 03:48:08;;;;;;;8.30;4.53;;;;;;;4.31;85.24;96404.61;1757457;81;21053;-69
2022/10/16 03:50:35;;;;;;;5.30;3.83;;;;;;;4.32;85.57;96409.41;1757257;81;21010;-69
2022/10/16 03:53:01;;;;;;;13.80;6.23;;;;;;;4.37;85.40;96415.59;1758255;81;21009;-69
2022/10/16 03:55:28;;;;;;;24.90;11.07;;;;;;;4.35;85.81;96415.98;1756544;81;20984;-69
2022/10/16 03:57:55;;;;;;;16.37;7.43;;;;;;;4.26;85.41;96421.06;1757207;81;21033;-68
2022/10/16 04:00:22;;;;;;;7.47;5.20;;;;;;;4.28;85.75;96415.41;1758401;81;20998;-69
2022/10/16 04:02:48;;;;;;;20.33;10.57;;;;;;;4.37;86.18;96423.43;1759700;81;21006;-69
2022/10/16 04:05:15;;;;;;;21.57;10.87;;;;;;;4.40;86.34;96418.69;1758470;81;21014;-68
2022/10/16 04:07:42;;;;;;;15.17;8.80;;;;;;;4.36;85.92;96422.08;1758731;81;21124;-69
2022/10/16 04:10:09;;;;;;;8.10;3.90;;;;;;;4.31;86.01;96422.02;1755921;81;21029;-69
2022/10/16 04:12:36;;;;;;;5.97;3.30;;;;;;;4.32;86.01;96413.32;1755452;81;21535;-69
2022/10/16 04:15:04;;;;;;;10.60;3.90;;;;;;;4.41;86.50;96413.50;1757562;81;20978;-69
2022/10/16 04:17:30;;;;;;;7.20;4.37;;;;;;;4.44;86.36;96412.25;1758372;81;21014;-69
2022/10/16 04:19:57;;;;;;;10.40;6.83;;;;;;;4.50;86.89;96420.19;1759883;81;21018;-70
2022/10/16 04:22:23;;;;;;;14.83;8.17;;;;;;;4.49;86.47;96417.56;1759702;81;21002;-69
2022/10/16 04:24:50;;;;;;;16.73;9.20;;;;;;;4.52;86.47;96424.14;1756062;81;21014;-70
2022/10/16 04:27:17;;;;;;;10.97;6.93;;;;;;;4.55;85.91;96432.91;1756404;81;21077;-69
2022/10/16 04:29:44;;;;;;;14.57;8.70;;;;;;;4.60;85.84;96426.89;1758483;81;20998;-70
2022/10/16 04:32:11;;;;;;;11.50;8.20;;;;;;;4.63;85.45;96428.25;1757275;81;21527;-70
2022/10/16 04:34:40;;;;;;;12.37;6.17;;;;;;;4.57;85.01;96426.84;1757322;81;21014;-69
2022/10/16 04:37:06;;;;;;;8.27;4.60;;;;;;;4.57;85.29;96429.46;1758969;81;21048;-69
2022/10/16 04:39:33;;;;;;;9.57;3.77;;;;;;;4.49;85.19;96426.27;1755938;81;21022;-69
2022/10/16 04:42:00;;;;;;;10.30;4.70;;;;;;;4.42;85.21;96425.70;1758669;81;21068;-69
2022/10/16 04:44:26;;;;;;;11.27;6.17;;;;;;;4.37;85.16;96427.35;1758460;81;20975;-69
2022/10/16 04:46:53;;;;;;;14.70;7.33;;;;;;;4.29;84.73;96428.52;1758471;81;21014;-68
2022/10/16 04:49:20;;;;;;;17.33;8.77;;;;;;;4.23;84.88;96421.84;1758781;81;20986;-69
2022/10/16 04:51:47;;;;;;;11.33;5.37;;;;;;;4.20;85.16;96427.45;1757371;81;21013;-69
2022/10/16 04:54:14;;;;;;;7.10;4.50;;;;;;;4.31;86.20;96429.43;1758209;81;21090;-69
2022/10/16 04:56:46;;;;;;;10.60;5.17;;;;;;;4.45;86.35;96431.41;1755988;81;21124;-69
2022/10/16 04:59:10;;;;;;;8.20;4.87;;;;;;;4.51;86.59;96426.28;1756118;81;21580;-70
2022/10/16 05:01:36;;;;;;;11.60;5.90;;;;;;;4.62;86.50;96439.56;1758404;81;21057;-69
2022/10/16 05:04:03;;;;;;;9.83;5.30;;;;;;;4.61;86.14;96440.41;1750382;81;21053;-70
2022/10/16 05:06:30;;;;;;;11.80;6.60;;;;;;;4.47;85.34;96439.73;1759934;81;21060;-69
2022/10/16 05:08:56;;;;;;;11.87;6.27;;;;;;;4.41;84.89;96441.34;1756846;81;21081;-69
2022/10/16 05:11:23;;;;;;;8.93;5.87;;;;;;;4.31;85.59;96442.92;1758799;81;21009;-69
2022/10/16 05:13:50;;;;;;;7.43;4.53;;;;;;;4.29;85.83;96449.84;1755493;81;21105;-68
2022/10/16 05:16:17;;;;;;;8.23;4.70;;;;;;;4.33;86.13;96447.73;1757235;81;21017;-69
2022/10/16 05:18:43;;;;;;;12.63;5.90;;;;;;;4.39;86.60;96449.60;1757540;81;21013;-68
2022/10/16 05:21:10;;;;;;;12.23;6.93;;;;;;;4.32;85.78;96447.28;1754959;81;20972;-68
2022/10/16 05:23:37;;;;;;;41.50;22.40;;;;;;;4.34;86.30;96449.51;1758842;81;21048;-69
2022/10/16 05:26:03;;;;;;;37.27;19.97;;;;;;;4.29;86.06;96449.41;1756669;81;20970;-69
2022/10/16 05:28:30;;;;;;;23.07;10.73;;;;;;;4.28;85.92;96454.20;1759559;81;21013;-69
2022/10/16 05:30:57;;;;;;;10.03;4.90;;;;;;;4.31;86.98;96459.91;1756323;81;21018;-69
2022/10/16 05:33:25;;;;;;;11.30;5.77;;;;;;;4.44;87.76;96456.67;1759837;81;21084;-69
2022/10/16 05:35:52;;;;;;;11.37;6.67;;;;;;;4.51;88.00;96457.64;1758344;81;22098;-69
2022/10/16 05:38:19;;;;;;;15.27;8.50;;;;;;;4.60;87.65;96463.05;1754382;81;21057;-70
2022/10/16 05:40:52;;;;;;;13.50;9.10;;;;;;;4.69;87.42;96463.66;1758643;81;21053;-70
2022/10/16 05:43:19;;;;;;;13.32;9.13;;;;;;;4.72;86.69;96469.81;1755718;81;21086;-70
2022/10/16 05:45:58;;;;;;;13.63;9.47;;;;;;;4.72;86.69;96469.81;1757286;81;21014;-69
2022/10/16 05:48:26;;;;;;;19.67;14.30;;;;;;;4.79;87.26;96470.81;1757246;81;21097;-70
2022/10/16 05:51:03;;;;;;;26.43;15.60;;;;;;;4.87;87.20;96474.88;1755681;81;21010;-69
2022/10/16 05:53:33;;;;;;;18.07;12.57;;;;;;;4.95;87.30;96473.27;1758559;81;21042;-69
2022/10/16 05:56:00;;;;;;;9.67;6.07;;;;;;;5.07;87.56;96469.98;1759819;81;21089;-68
2022/10/16 05:58:36;;;;;;;9.90;5.03;;;;;;;5.16;87.46;96471.42;1757395;81;21069;-69
2022/10/16 06:01:06;;;;;;;12.23;8.10;;;;;;;5.25;86.96;96471.59;1758279;81;21801;-69
2022/10/16 06:03:34;;;;;;;16.33;8.50;;;;;;;5.32;87.13;96473.45;1758558;81;21022;-70
2022/10/16 06:06:17;;;;;;;16.67;8.73;;;;;;;5.44;87.69;96479.28;1757599;81;21121;-69
2022/10/16 06:08:47;;;;;;;16.07;12.27;;;;;;;5.55;87.77;96479.04;1756228;81;21026;-69
2022/10/16 06:11:21;;;;;;;11.63;8.87;;;;;;;5.69;87.96;96477.05;1758435;81;21602;-70
2022/10/16 06:13:56;;;;;;;12.82;9.30;;;;;;;5.89;88.21;96473.40;1758778;81;21081;-70
2022/10/16 06:16:24;;;;;;;16.73;12.90;;;;;;;6.10;88.10;96475.05;1755509;81;21022;-70
2022/10/16 06:18:53;;;;;;;25.73;20.07;;;;;;;6.28;88.08;96472.64;1755037;81;21093;-70
2022/10/16 06:21:26;;;;;;;25.43;18.97;;;;;;;6.45;87.87;96472.84;1758578;81;21018;-70
2022/10/16 06:23:55;;;;;;;20.40;15.75;;;;;;;6.57;87.53;96473.83;1757884;81;21504;-70
2022/10/16 06:26:25;;;;;;;24.10;12.87;;;;;;;6.75;87.61;96475.77;1757700;81;21018;-71
2022/10/16 06:28:55;;;;;;;16.60;10.73;;;;;;;6.87;87.39;96479.39;1760157;81;21034;-71
2022/10/16 06:31:27;;;;;;;19.63;11.90;;;;;;;7.03;87.37;96474.30;1759896;81;21057;-70
2022/10/16 06:33:52;;;;;;;17.70;11.47;;;;;;;7.20;87.17;96478.39;1759950;81;21065;-70
2022/10/16 06:36:19;;;;;;;16.43;12.43;;;;;;;7.32;87.08;96479.37;1756114;81;21018;-70
2022/10/16 06:38:45;;;;;;;25.97;13.43;;;;;;;7.44;86.35;96481.67;1760109;81;21044;-70
2022/10/16 06:41:19;;;;;;;22.93;14.93;;;;;;;7.60;86.77;96480.89;1758654;81;21002;-69
2022/10/16 06:43:47;;;;;;;20.45;13.53;;;;;;;7.77;86.45;96484.97;1758924;81;21057;-69
2022/10/16 06:46:17;;;;;;;21.80;11.53;;;;;;;7.91;85.85;96483.72;1759638;81;21065;-69
2022/10/16 06:48:44;;;;;;;19.40;10.97;;;;;;;8.01;85.52;96489.06;1757456;81;21540;-69
2022/10/16 06:51:15;;;;;;;16.43;10.20;;;;;;;8.14;85.55;96491.32;1755917;81;21040;-69
2022/10/16 06:53:48;;;;;;;14.03;9.77;;;;;;;8.22;85.20;96488.73;1757328;81;20979;-69
2022/10/16 06:56:19;;;;;;;16.45;8.60;;;;;;;8.53;85.00;96488.89;1757545;81;21555;-70
2022/10/16 06:58:47;;;;;;;20.70;9.07;;;;;;;8.53;85.00;96488.89;1760123;81;22205;-69
2022/10/16 07:01:16;;;;;;;16.77;9.67;;;;;;;8.66;85.06;96493.31;1754242;81;21157;-69
2022/10/16 07:03:45;;;;;;;13.50;8.97;;;;;;;8.77;85.01;96490.30;1759106;81;21626;-69
2022/10/16 07:06:15;;;;;;;16.73;8.67;;;;;;;8.91;85.01;96491.62;1755371;81;21022;-69
2022/10/16 07:08:46;;;;;;;19.67;8.40;;;;;;;9.06;84.81;96494.29;1759450;81;21053;-70
2022/10/16 07:11:17;;;;;;;16.13;9.60;;;;;;;9.22;84.76;96488.63;1760119;81;21101;-70
2022/10/16 07:13:46;;;;;;;16.00;9.23;;;;;;;9.39;84.53;96490.38;1755897;81;21014;-70
2022/10/16 07:16:16;;;;;;;16.03;10.13;;;;;;;9.52;84.20;96489.49;1754615;81;21006;-69
2022/10/16 07:18:45;;;;;;;16.60;9.90;;;;;;;9.65;84.19;96482.05;1759221;81;21041;-70
2022/10/16 07:21:20;;;;;;;16.07;10.03;;;;;;;9.77;83.85;96490.36;1758608;81;21076;-70
2022/10/16 07:23:57;;;;;;;12.30;8.70;;;;;;;9.89;83.51;96492.11;1758217;81;20994;-70
2022/10/16 07:26:24;;;;;;;14.63;8.50;;;;;;;10.00;83.37;96483.73;1756850;81;21015;-69
2022/10/16 07:28:52;;;;;;;14.98;8.85;;;;;;;10.14;83.13;96485.90;1755595;81;21607;-70
2022/10/16 07:31:21;;;;;;;18.85;10.70;;;;;;;10.27;82.93;96481.47;1758349;81;21143;-69
2022/10/16 07:33:49;;;;;;;14.05;8.88;;;;;;;10.38;82.80;96485.41;1758758;81;21076;-69
2022/10/16 07:36:18;;;;;;;13.13;9.08;;;;;;;10.51;82.73;96481.87;1758357;81;21022;-69
2022/10/16 07:38:46;;;;;;;13.80;8.35;;;;;;;10.66;82.58;96486.62;1755071;81;21054;-70
2022/10/16 07:41:17;;;;;;;12.82;8.20;;;;;;;10.76;82.27;96483.95;1758425;81;21066;-69
2022/10/16 07:43:49;;;;;;;12.75;9.10;;;;;;;10.88;82.05;96487.39;1758497;81;21125;-70
2022/10/16 07:46:17;;;;;;;12.33;8.48;;;;;;;10.99;81.93;96490.88;1754819;81;22085;-70
2022/10/16 07:48:47;;;;;;;16.57;7.75;;;;;;;11.10;81.53;96487.70;1758647;81;21014;-71
2022/10/16 07:51:17;;;;;;;14.50;8.05;;;;;;;11.21;81.51;96489.85;1758699;81;21484;-70
2022/10/16 07:53:44;;;;;;;11.78;8.70;;;;;;;11.38;81.60;96488.84;1757133;81;20978;-70
2022/10/16 07:56:11;;;;;;;11.60;7.62;;;;;;;11.54;81.52;96489.59;1756273;81;21355;-70
2022/10/16 07:58:39;;;;;;;11.12;7.67;;;;;;;11.70;81.35;96489.91;1757193;81;21086;-70
2022/10/16 08:01:08;;;;;;;15.60;8.55;;;;;;;11.83;80.68;96494.19;1758457;81;21014;-70
2022/10/16 08:03:35;;;;;;;9.83;7.03;;;;;;;11.97;80.42;96494.11;1758537;81;21025;-69
2022/10/16 08:06:04;;;;;;;14.07;7.78;;;;;;;12.13;79.42;96494.37;1759796;81;21041;-70
2022/10/16 08:08:30;;;;;;;13.40;7.37;;;;;;;12.26;78.75;96498.22;1728815;81;21006;-69
2022/10/16 08:10:57;;;;;;;9.20;6.70;;;;;;;12.42;79.29;96497.14;1760030;81;21024;-70
2022/10/16 08:13:24;;;;;;;10.03;7.28;;;;;;;12.62;77.26;96506.62;1759214;81;21022;-70
2022/10/16 08:15:51;;;;;;;9.58;7.20;;;;;;;12.77;78.10;96501.14;1757983;81;21026;-71
2022/10/16 08:18:17;;;;;;;7.40;5.37;;;;;;;12.96;77.95;96501.34;1754296;81;21089;-70
2022/10/16 08:20:44;;;;;;;7.53;5.28;;;;;;;13.19;78.26;96496.17;1758826;81;21022;-70
2022/10/16 08:23:13;;;;;;;10.93;5.37;;;;;;;13.42;76.81;96495.86;1754900;81;21050;-70
2022/10/16 08:25:41;;;;;;;9.28;5.30;;;;;;;13.67;76.80;96494.16;1757300;81;21006;-70
2022/10/16 08:28:10;;;;;;;8.10;5.70;;;;;;;13.89;75.64;96492.89;1758373;81;21022;-69
2022/10/16 08:30:37;;;;;;;8.88;5.70;;;;;;;14.08;75.27;96494.75;1758153;81;21025;-71
2022/10/16 08:33:05;;;;;;;9.40;5.65;;;;;;;14.20;73.58;96492.34;1757699;81;21425;-70
2022/10/16 08:35:33;;;;;;;8.90;5.83;;;;;;;14.31;72.92;96493.00;1759785;81;21037;-70
2022/10/16 08:38:00;;;;;;;10.13;5.72;;;;;;;14.50;73.86;96496.19;1758415;81;21026;-70
2022/10/16 08:40:32;;;;;;;9.23;6.00;;;;;;;14.62;72.46;96495.98;1754185;81;21045;-71
2022/10/16 08:43:56;;;;;;;11.35;5.97;;;;;;;14.71;70.98;96494.91;1758771;81;21093;-71
2022/10/16 08:46:39;;;;;;;7.62;6.05;;;;;;;14.82;71.24;96496.91;1758411;81;21037;-70
2022/10/16 08:49:11;;;;;;;7.83;5.53;;;;;;;14.88;69.94;96496.77;1758174;81;21045;-71
2022/10/16 08:51:38;;;;;;;8.75;5.78;;;;;;;15.01;70.29;96492.52;1756891;81;21133;-70
2022/10/16 08:54:26;;;;;;;11.08;5.80;;;;;;;15.11;69.62;96494.07;1757466;81;20975;-71
2022/10/16 08:56:56;;;;;;;6.53;5.50;;;;;;;15.20;67.84;96495.67;1758782;81;21057;-71
2022/10/16 08:59:23;;;;;;;8.28;5.58;;;;;;;15.31;67.63;96497.16;1756350;81;21014;-70
2022/10/16 09:01:52;;;;;;;11.35;5.87;;;;;;;15.43;66.74;96494.68;1758729;81;21658;-67
2022/10/16 09:04:26;;;;;;;8.25;6.08;;;;;;;15.60;67.27;96495.63;1756179;81;21010;-71
2022/10/16 09:07:16;;;;;;;7.60;5.28;;;;;;;15.60;67.27;96495.63;1751071;81;21014;-70
2022/10/16 09:09:53;;;;;;;12.00;5.60;;;;;;;15.58;65.97;96491.66;1756735;81;21582;-69
2022/10/16 09:12:25;;;;;;;7.37;5.22;;;;;;;15.65;66.10;96492.82;1758869;81;21142;-69
2022/10/16 09:15:14;;;;;;;9.08;5.50;;;;;;;15.77;66.49;96490.80;1757567;81;21077;-70
2022/10/16 09:18:12;;;;;;;9.00;5.55;;;;;;;15.96;65.65;96496.98;1732006;81;21018;-69
2022/10/16 09:21:09;;;;;;;8.80;5.40;;;;;;;15.96;65.65;96496.98;1757329;81;21015;-70
2022/10/16 09:23:38;;;;;;;7.67;5.37;;;;;;;16.07;65.62;96500.70;1758411;81;21367;-69
2022/10/16 09:26:12;;;;;;;7.70;5.70;;;;;;;16.15;64.81;96507.59;1758742;81;21086;-69
2022/10/16 09:28:38;;;;;;;7.45;5.33;;;;;;;16.22;63.73;96513.61;1731193;81;21496;-70
2022/10/16 09:31:05;;;;;;;8.58;5.55;;;;;;;16.30;63.63;96508.08;1755992;81;21518;-70
2022/10/16 09:33:38;;;;;;;7.97;5.58;;;;;;;16.35;62.91;96513.69;1756973;81;21499;-70
2022/10/16 09:36:06;;;;;;;10.03;5.72;;;;;;;16.45;63.38;96514.33;1758782;81;21097;-71
2022/10/16 09:38:36;;;;;;;7.80;5.80;;;;;;;16.57;63.07;96513.13;1750554;81;21480;-70
2022/10/16 09:41:14;;;;;;;7.45;5.35;;;;;;;16.63;63.00;96509.84;1757205;81;21069;-71
2022/10/16 09:43:48;;;;;;;10.78;5.40;;;;;;;16.73;63.04;96506.47;1755147;81;21120;-71
2022/10/16 09:46:34;;;;;;;6.78;5.78;;;;;;;16.83;62.93;96501.33;1757205;81;21073;-70
2022/10/16 09:49:24;;;;;;;7.47;5.47;;;;;;;16.97;61.93;96502.70;1759727;81;21551;-70
2022/10/16 09:52:13;;;;;;;5.75;5.03;;;;;;;16.90;61.03;96502.47;1758469;81;21061;-70
2022/10/16 09:54:56;;;;;;;11.05;5.12;;;;;;;16.90;60.44;96499.33;1754825;81;21054;-71
2022/10/16 09:57:22;;;;;;;10.23;5.17;;;;;;;16.97;60.65;96508.04;1756356;81;21061;-71
2022/10/16 09:59:56;;;;;;;7.78;5.22;;;;;;;17.09;60.91;96497.88;1759924;81;21539;-71
2022/10/16 10:02:31;;;;;;;;;;;;;;;17.20;61.12;96496.69;1759860;81;21011;-71
2022/10/16 10:04:58;;;;;;;6.85;4.83;;;;;;;17.39;60.56;96494.34;1758820;81;20121;-71
2022/10/16 10:07:36;;;;;;;9.90;5.87;;;;;;;17.44;59.43;96489.27;1757190;81;21109;-71
2022/10/16 10:10:06;;;;;;;7.45;4.92;;;;;;;17.55;58.66;96490.72;1758438;81;21097;-71
2022/10/16 10:12:35;;;;;;;7.35;5.20;;;;;;;17.65;57.75;96490.84;1753724;81;21026;-71
2022/10/16 10:15:12;;;;;;;8.15;5.50;;;;;;;17.74;57.73;96491.89;1757468;81;21579;-70
2022/10/16 10:17:56;;;;;;;8.75;5.05;;;;;;;17.92;57.70;96494.44;1755467;81;20986;-69
2022/10/16 10:20:34;;;;;;;6.55;4.60;;;;;;;18.26;56.41;96484.80;1756257;81;21578;-71
2022/10/16 10:23:03;;;;;;;5.65;5.05;;;;;;;18.66;54.23;96486.07;1759267;81;21472;-71
2022/10/16 10:25:54;;;;;;;5.85;4.70;;;;;;;18.99;53.39;96486.65;1756635;81;21015;-70
2022/10/16 10:28:50;;;;;;;11.95;5.15;;;;;;;19.30;53.95;96484.61;1758655;81;21022;-71
2022/10/16 10:31:41;;;;;;;6.60;4.78;;;;;;;19.67;51.61;96478.70;1758002;81;21014;-71
2022/10/16 10:34:40;;;;;;;9.33;4.85;;;;;;;19.93;50.57;96481.64;1758725;81;21035;-71
2022/10/16 10:37:15;;;;;;;5.53;4.95;;;;;;;20.42;49.67;96476.90;1757236;81;21026;-71
2022/10/16 10:39:47;;;;;;;5.70;4.45;;;;;;;20.77;48.03;96477.67;1750187;81;21073;-71
2022/10/16 10:42:22;;;;;;;7.33;4.35;;;;;;;21.13;49.13;96474.63;1713417;83;21107;-71
2022/10/16 10:45:26;;;;;;;7.58;4.58;;;;;;;21.37;46.59;96478.47;1733833;83;21043;-71
2022/10/16 10:48:14;;;;;;;4.10;3.70;;;;;;;21.66;46.33;96471.71;1727368;83;21099;-71
2022/10/16 10:51:10;;;;;;;5.60;4.50;;;;;;;21.95;45.12;96467.61;1726881;82;21050;-69
2022/10/16 10:53:50;;;;;;;13.22;4.60;;;;;;;21.99;43.62;96471.86;1736397;82;21517;-71
2022/10/16 10:56:31;;;;;;;8.13;4.42;;;;;;;22.39;43.49;96466.33;1757313;81;21061;-69
2022/10/16 10:59:18;;;;;;;6.20;4.00;;;;;;;22.57;41.94;96461.33;1760636;81;21102;-71
2022/10/16 11:02:17;;;;;;;6.10;4.00;;;;;;;22.78;43.08;96466.52;1757562;81;21021;-70
2022/10/16 11:05:01;;;;;;;5.10;3.55;;;;;;;22.92;40.29;96460.41;1742717;81;21006;-70
2022/10/16 11:07:39;;;;;;;4.85;4.00;;;;;;;23.33;41.80;96462.21;1727995;83;21009;-70
2022/10/16 11:10:26;;;;;;;4.80;4.00;;;;;;;23.71;40.51;96457.38;1766292;81;21003;-70
2022/10/16 11:13:01;;;;;;;4.45;3.70;;;;;;;23.97;39.50;96463.13;1796919;80;21034;-70
2022/10/16 11:15:32;;;;;;;4.62;3.45;;;;;;;24.19;38.54;96458.67;1796972;80;21046;-70
2022/10/16 11:18:13;;;;;;;4.70;3.87;;;;;;;24.14;35.69;96452.68;1785834;79;21487;-71
2022/10/16 11:21:07;;;;;;;4.53;4.10;;;;;;;24.15;37.90;96457.13;1781713;80;21136;-71
2022/10/16 11:23:57;;;;;;;4.95;4.42;;;;;;;24.15;36.17;96454.44;1781995;80;21010;-70
2022/10/16 11:26:34;;;;;;;4.45;4.00;;;;;;;24.26;37.51;96456.49;1781381;78;21156;-72
2022/10/16 11:29:04;;;;;;;6.90;3.92;;;;;;;24.76;37.63;96461.56;1786376;79;21496;-70
2022/10/16 11:31:48;;;;;;;4.70;3.45;;;;;;;25.04;35.94;96457.16;1791061;79;21003;-70
2022/10/16 11:34:35;;;;;;;3.62;3.30;;;;;;;25.21;35.02;96454.78;1786538;79;21018;-70
2022/10/16 11:37:07;;;;;;;5.42;4.00;;;;;;;25.48;35.74;96450.81;1768778;80;21133;-70
2022/10/16 11:39:34;;;;;;;;;;;;;;;25.44;34.90;96454.17;1789398;79;21018;-69
2022/10/16 11:42:17;;;;;;;4.30;3.58;;;;;;;25.49;34.41;96455.23;1785948;78;20128;-70
2022/10/16 11:45:10;;;;;;;5.05;3.80;;;;;;;25.02;34.94;96457.73;1780335;79;21006;-70
2022/10/16 11:48:01;;;;;;;4.20;3.55;;;;;;;25.42;35.69;96465.56;1799565;80;21554;-70
2022/10/16 11:51:00;;;;;;;8.33;3.55;;;;;;;25.42;33.96;96457.95;1780844;80;21125;-70
2022/10/16 11:53:41;;;;;;;6.78;3.80;;;;;;;25.29;33.76;96460.56;1788444;79;21612;-70
2022/10/16 11:56:15;;;;;;;4.53;3.42;;;;;;;25.38;34.39;96465.39;1788695;80;21021;-70
2022/10/16 11:58:59;;;;;;;6.03;3.62;;;;;;;25.88;34.63;96463.98;1787080;80;20998;-70
2022/10/16 12:01:40;;;;;;;4.03;3.30;;;;;;;26.14;34.72;96458.67;1793062;80;20993;-71